createdAt,value
2023-04-28T00:01:28.050Z,16.65
2023-04-28T00:03:58.199Z,17.58
2023-04-28T00:06:24.980Z,16.63
2023-04-28T00:08:51.646Z,17.25
2023-04-28T00:11:18.278Z,16.33
2023-04-28T00:13:44.808Z,21.20
2023-04-28T00:16:11.522Z,17.50
2023-04-28T00:18:38.027Z,16.80
2023-04-28T00:21:04.852Z,14.20
2023-04-28T00:23:31.330Z,12.82
2023-04-28T00:25:58.065Z,15.02
2023-04-28T00:30:54.411Z,14.45
2023-04-28T00:33:21.073Z,17.20
2023-04-28T00:35:47.766Z,17.35
2023-04-28T00:38:14.335Z,18.20
2023-04-28T00:40:41.071Z,14.05
2023-04-28T00:43:07.745Z,15.18
2023-04-28T00:45:34.666Z,17.42
2023-04-28T00:48:01.295Z,16.27
2023-04-28T00:50:28.380Z,18.27
2023-04-28T00:52:54.944Z,17.10
2023-04-28T00:55:22.598Z,16.38
2023-04-28T00:57:49.609Z,17.52
2023-04-28T01:00:16.372Z,19.10
2023-04-28T01:02:43.007Z,15.77
2023-04-28T01:05:10.304Z,21.40
2023-04-28T01:07:37.781Z,18.33
2023-04-28T01:10:07.109Z,17.88
2023-04-28T01:12:34.403Z,20.38
2023-04-28T01:15:01.643Z,18.85
2023-04-28T01:17:29.277Z,15.18
2023-04-28T01:19:56.536Z,18.20
2023-04-28T01:22:23.044Z,19.00
2023-04-28T01:24:49.648Z,14.50
2023-04-28T01:27:17.234Z,16.77
2023-04-28T01:29:44.266Z,17.38
2023-04-28T01:32:11.182Z,15.27
2023-04-28T01:34:39.473Z,17.85
2023-04-28T01:37:07.182Z,17.25
2023-04-28T01:39:36.624Z,17.35
2023-04-28T01:42:03.690Z,16.30
2023-04-28T01:44:30.363Z,18.17
2023-04-28T01:46:56.987Z,16.13
2023-04-28T01:49:24.137Z,15.60
2023-04-28T01:51:50.748Z,17.20
2023-04-28T01:54:17.560Z,17.20
2023-04-28T01:56:44.308Z,17.85
2023-04-28T01:59:15.248Z,17.92
2023-04-28T02:01:41.858Z,18.60
2023-04-28T02:04:08.733Z,17.48
2023-04-28T02:06:37.268Z,18.95
2023-04-28T02:09:04.003Z,18.17
2023-04-28T02:11:33.484Z,18.40
2023-04-28T02:14:00.361Z,17.08
2023-04-28T02:16:26.918Z,15.95
2023-04-28T02:18:53.720Z,18.20
2023-04-28T02:21:20.235Z,16.13
2023-04-28T02:23:46.889Z,22.45
2023-04-28T02:26:13.541Z,16.73
2023-04-28T02:28:41.783Z,19.80
2023-04-28T02:31:09.359Z,18.10
2023-04-28T02:33:36.327Z,17.50
2023-04-28T02:36:03.755Z,19.83
2023-04-28T02:38:30.456Z,19.92
2023-04-28T02:41:01.052Z,21.42
2023-04-28T02:43:28.252Z,23.58
2023-04-28T02:45:55.010Z,18.15
2023-04-28T02:48:24.196Z,23.23
2023-04-28T02:50:51.283Z,18.65
2023-04-28T02:53:17.937Z,18.35
2023-04-28T02:55:44.836Z,19.85
2023-04-28T02:58:11.581Z,21.92
2023-04-28T03:00:38.038Z,20.63
2023-04-28T03:03:04.887Z,22.50
2023-04-28T03:05:31.729Z,22.08
2023-04-28T03:07:58.964Z,18.95
2023-04-28T03:10:25.674Z,22.15
2023-04-28T03:12:52.259Z,23.65
2023-04-28T03:15:18.751Z,18.42
2023-04-28T03:17:45.730Z,17.98
2023-04-28T03:20:13.053Z,22.75
2023-04-28T03:22:40.000Z,20.35
2023-04-28T03:25:07.597Z,18.30
2023-04-28T03:27:40.810Z,21.20
2023-04-28T03:30:07.682Z,20.40
2023-04-28T03:32:34.401Z,20.13
2023-04-28T03:35:01.972Z,22.08
2023-04-28T03:37:28.581Z,20.48
2023-04-28T03:39:55.337Z,19.73
2023-04-28T03:42:21.925Z,22.92
2023-04-28T03:45:15.957Z,19.88
2023-04-28T03:47:42.526Z,23.92
2023-04-28T03:50:09.780Z,22.40
2023-04-28T03:52:36.369Z,19.67
2023-04-28T03:55:03.241Z,20.17
2023-04-28T03:57:29.805Z,23.25
2023-04-28T03:59:56.880Z,21.38
2023-04-28T04:02:23.817Z,20.42
2023-04-28T04:04:50.796Z,23.25
2023-04-28T04:07:17.777Z,21.30
2023-04-28T04:09:44.303Z,22.60
2023-04-28T04:12:11.088Z,20.23
2023-04-28T04:14:37.758Z,20.30
2023-04-28T04:17:04.455Z,21.08
2023-04-28T04:19:31.317Z,20.33
2023-04-28T04:21:57.881Z,22.45
2023-04-28T04:24:25.000Z,26.02
2023-04-28T04:26:51.949Z,25.15
2023-04-28T04:29:39.373Z,24.65
2023-04-28T04:32:12.774Z,22.83
2023-04-28T04:34:40.885Z,23.85
2023-04-28T04:37:07.390Z,24.05
2023-04-28T04:39:37.123Z,26.40
2023-04-28T04:42:16.743Z,29.38
2023-04-28T04:45:00.696Z,26.13
2023-04-28T04:47:29.975Z,28.83
2023-04-28T04:49:56.696Z,25.25
2023-04-28T04:52:23.709Z,26.20
2023-04-28T04:54:50.888Z,23.10
2023-04-28T04:57:18.064Z,24.92
2023-04-28T05:00:04.791Z,27.52
2023-04-28T05:02:31.817Z,26.75
2023-04-28T05:05:08.194Z,26.98
2023-04-28T05:07:46.684Z,27.50
2023-04-28T05:10:13.765Z,29.60
2023-04-28T05:12:41.846Z,28.20
2023-04-28T05:15:08.678Z,28.40
2023-04-28T05:17:39.335Z,29.08
2023-04-28T05:20:06.311Z,27.55
2023-04-28T05:22:32.916Z,31.38
2023-04-28T05:24:59.558Z,30.45
2023-04-28T05:27:26.686Z,34.25
2023-04-28T05:29:53.836Z,33.45
2023-04-28T05:32:20.482Z,38.35
2023-04-28T05:34:47.229Z,33.00
2023-04-28T05:37:14.067Z,38.17
2023-04-28T05:39:42.844Z,34.28
2023-04-28T05:42:09.458Z,36.53
2023-04-28T05:44:36.135Z,36.58
2023-04-28T05:47:02.695Z,35.63
2023-04-28T05:49:29.400Z,35.60
2023-04-28T05:51:56.018Z,35.00
2023-04-28T05:54:22.710Z,34.35
2023-04-28T05:56:53.317Z,36.92
2023-04-28T05:59:19.977Z,35.72
2023-04-28T06:01:46.560Z,35.78
2023-04-28T06:04:13.867Z,36.90
2023-04-28T06:06:41.486Z,39.13
2023-04-28T06:09:08.138Z,40.58
2023-04-28T06:11:34.744Z,36.90
2023-04-28T06:14:01.250Z,37.80
2023-04-28T06:16:28.697Z,37.50
2023-04-28T06:18:55.369Z,35.15
2023-04-28T06:21:22.452Z,34.22
2023-04-28T06:23:49.167Z,35.25
2023-04-28T06:26:18.065Z,32.53
2023-04-28T06:28:44.973Z,30.77
2023-04-28T06:31:11.586Z,30.35
2023-04-28T06:33:39.366Z,34.35
2023-04-28T06:36:06.432Z,29.10
2023-04-28T06:38:32.993Z,31.50
2023-04-28T06:40:59.478Z,32.97
2023-04-28T06:43:28.776Z,29.33
2023-04-28T06:46:04.300Z,29.80
2023-04-28T06:48:31.197Z,28.75
2023-04-28T06:50:57.784Z,30.45
2023-04-28T06:53:24.472Z,30.27
2023-04-28T06:55:51.678Z,27.05
2023-04-28T06:58:21.025Z,25.75
2023-04-28T07:00:48.116Z,25.23
2023-04-28T07:03:14.781Z,28.15
2023-04-28T07:05:41.384Z,25.85
2023-04-28T07:08:07.903Z,24.38
2023-04-28T07:10:34.607Z,12.38
2023-04-28T07:13:01.166Z,10.35
2023-04-28T07:15:28.036Z,7.25
2023-04-28T07:17:54.747Z,7.25
2023-04-28T07:20:21.582Z,4.40
2023-04-28T07:22:48.700Z,7.40
2023-04-28T07:25:15.549Z,7.55
2023-04-28T07:27:42.110Z,8.68
2023-04-28T07:30:15.164Z,6.85
2023-04-28T07:32:48.026Z,6.57
2023-04-28T07:35:14.718Z,4.78
2023-04-28T07:37:41.401Z,8.20
2023-04-28T07:40:08.382Z,8.07
2023-04-28T07:42:35.047Z,5.35
2023-04-28T07:45:01.674Z,5.75
2023-04-28T07:47:29.421Z,6.00
2023-04-28T07:49:56.168Z,7.40
2023-04-28T07:52:22.812Z,8.23
2023-04-28T07:54:49.692Z,5.95
2023-04-28T07:57:16.259Z,4.63
2023-04-28T07:59:42.925Z,8.52
2023-04-28T08:02:13.501Z,5.13
2023-04-28T08:04:40.253Z,5.20
2023-04-28T08:07:07.024Z,6.15
2023-04-28T08:09:35.579Z,9.82
2023-04-28T08:12:02.307Z,5.80
2023-04-28T08:14:29.508Z,6.53
2023-04-28T08:16:57.285Z,4.53
2023-04-28T08:19:24.090Z,6.38
2023-04-28T08:21:50.691Z,4.75
2023-04-28T08:24:17.578Z,5.40
2023-04-28T08:26:44.282Z,4.50
2023-04-28T08:29:10.952Z,3.60
2023-04-28T08:31:38.270Z,4.43
2023-04-28T08:34:04.817Z,6.32
2023-04-28T08:36:35.124Z,4.93
2023-04-28T08:39:04.118Z,7.68
2023-04-28T08:49:51.590Z,4.78
2023-04-28T08:52:18.787Z,9.30
2023-04-28T08:54:47.273Z,6.45
2023-04-28T08:57:13.997Z,10.90
2023-04-28T08:59:41.366Z,9.18
2023-04-28T09:02:11.325Z,7.90
2023-04-28T09:04:38.273Z,8.05
2023-04-28T09:07:10.596Z,7.88
2023-04-28T09:09:39.194Z,8.77
2023-04-28T09:12:05.953Z,7.53
2023-04-28T09:14:34.385Z,6.22
2023-04-28T09:17:01.469Z,5.72
2023-04-28T09:19:34.556Z,5.30
2023-04-28T09:22:07.739Z,2.92
2023-04-28T09:24:42.839Z,5.93
2023-04-28T09:27:11.998Z,5.75
2023-04-28T09:29:39.221Z,7.28
2023-04-28T09:32:15.901Z,3.70
2023-04-28T09:34:45.438Z,7.60
2023-04-28T09:37:20.052Z,5.85
2023-04-28T09:42:33.013Z,7.20
2023-04-28T09:44:59.710Z,6.07
2023-04-28T09:47:26.388Z,6.60
2023-04-28T09:49:56.550Z,8.23
2023-04-28T09:52:24.266Z,4.63
2023-04-28T09:54:51.664Z,5.65
2023-04-28T09:57:22.254Z,6.22
2023-04-28T09:59:52.878Z,5.40
2023-04-28T10:04:53.138Z,7.05
2023-04-28T10:07:20.823Z,6.45
2023-04-28T10:09:50.217Z,7.53
2023-04-28T10:12:21.007Z,3.38
2023-04-28T10:14:50.267Z,3.00
2023-04-28T10:17:17.826Z,3.38
2023-04-28T10:19:45.709Z,5.97
2023-04-28T10:22:12.405Z,7.00
2023-04-28T10:24:51.773Z,6.22
2023-04-28T10:27:18.627Z,6.47
2023-04-28T10:29:45.299Z,8.75
2023-04-28T10:32:18.869Z,6.30
2023-04-28T10:34:45.622Z,7.90
2023-04-28T10:37:14.842Z,11.02
2023-04-28T10:39:42.182Z,6.85
2023-04-28T10:42:27.262Z,10.10
2023-04-28T10:47:20.683Z,5.60
2023-04-28T10:49:59.516Z,10.25
2023-04-28T10:52:38.482Z,9.35
2023-04-28T10:55:22.565Z,11.38
2023-04-28T10:58:09.242Z,11.90
2023-04-28T11:00:36.230Z,7.00
2023-04-28T11:03:02.968Z,6.65
2023-04-28T11:05:31.925Z,11.32
2023-04-28T11:08:17.182Z,9.05
2023-04-28T11:11:02.442Z,6.95
2023-04-28T11:13:33.977Z,11.80
2023-04-28T11:16:04.506Z,9.95
2023-04-28T11:18:57.604Z,7.38
2023-04-28T11:21:24.796Z,6.32
2023-04-28T11:23:52.105Z,9.60
2023-04-28T11:26:19.373Z,9.13
2023-04-28T11:28:48.760Z,10.27
2023-04-28T11:31:24.907Z,7.68
2023-04-28T11:33:55.602Z,10.27
2023-04-28T11:36:26.421Z,6.95
2023-04-28T11:38:53.031Z,6.13
2023-04-28T11:41:19.613Z,8.32
2023-04-28T11:43:47.705Z,6.55
2023-04-28T11:46:18.488Z,9.00
2023-04-28T11:48:48.174Z,11.20
2023-04-28T11:51:42.183Z,10.43
2023-04-28T11:54:11.853Z,8.63
2023-04-28T11:56:39.631Z,8.20
2023-04-28T11:59:08.670Z,10.80
2023-04-28T12:01:37.932Z,9.25
2023-04-28T12:04:04.775Z,8.93
2023-04-28T12:06:31.326Z,9.27
2023-04-28T12:09:03.564Z,8.38
2023-04-28T12:11:31.093Z,12.57
2023-04-28T12:14:04.434Z,9.50
2023-04-28T12:16:39.323Z,8.18
2023-04-28T12:19:10.181Z,15.70
2023-04-28T12:21:40.254Z,12.27
2023-04-28T12:24:16.211Z,10.27
2023-04-28T12:26:42.775Z,11.32
2023-04-28T12:29:10.786Z,9.55
2023-04-28T12:31:50.890Z,13.48
2023-04-28T12:34:17.534Z,10.13
2023-04-28T12:36:46.359Z,9.15
2023-04-28T12:39:20.177Z,10.32
2023-04-28T12:41:46.891Z,11.33
2023-04-28T12:44:13.464Z,10.18
2023-04-28T12:46:43.044Z,11.88
2023-04-28T12:49:09.557Z,12.35
2023-04-28T12:51:38.898Z,14.95
2023-04-28T12:54:05.647Z,9.48
2023-04-28T12:56:32.311Z,14.43
2023-04-28T12:58:58.814Z,13.43
2023-04-28T13:01:29.091Z,9.95
2023-04-28T13:03:55.952Z,11.25
2023-04-28T13:06:22.590Z,9.15
2023-04-28T13:08:49.398Z,12.45
2023-04-28T13:11:22.770Z,9.43
2023-04-28T13:13:49.824Z,9.53
2023-04-28T13:16:16.535Z,11.75
2023-04-28T13:18:43.368Z,12.15
2023-04-28T13:21:09.887Z,14.40
2023-04-28T13:23:36.712Z,10.13
2023-04-28T13:26:04.429Z,11.10
2023-04-28T13:28:31.029Z,11.77
2023-04-28T13:30:57.631Z,13.23
2023-04-28T13:33:30.992Z,13.95
2023-04-28T13:35:58.593Z,8.80
2023-04-28T13:38:25.913Z,10.50
2023-04-28T13:40:53.024Z,9.93
2023-04-28T13:43:19.670Z,10.70
2023-04-28T13:45:46.538Z,11.43
2023-04-28T13:48:13.147Z,9.60
2023-04-28T13:50:39.855Z,8.50
2023-04-28T13:53:06.438Z,9.73
2023-04-28T13:55:33.064Z,8.25
2023-04-28T13:58:03.712Z,6.65
2023-04-28T14:00:32.236Z,6.45
2023-04-28T14:02:59.654Z,8.35
2023-04-28T14:05:29.728Z,9.13
2023-04-28T14:07:57.040Z,7.53
2023-04-28T14:10:23.593Z,4.90
2023-04-28T14:12:50.631Z,12.07
2023-04-28T14:15:18.078Z,10.63
2023-04-28T14:17:44.864Z,8.50
2023-04-28T14:20:11.791Z,8.90
2023-04-28T14:22:38.888Z,9.95
2023-04-28T14:25:05.595Z,6.78
2023-04-28T14:27:33.505Z,10.65
2023-04-28T14:30:00.854Z,7.95
2023-04-28T14:32:27.723Z,9.18
2023-04-28T14:34:54.196Z,9.70
2023-04-28T14:37:20.906Z,9.90
2023-04-28T14:39:48.462Z,10.77
2023-04-28T14:42:15.232Z,9.90
2023-04-28T14:44:42.018Z,9.93
2023-04-28T14:47:08.679Z,10.65
2023-04-28T14:49:35.456Z,10.63
2023-04-28T14:52:02.540Z,9.55
2023-04-28T14:54:29.071Z,14.73
2023-04-28T14:56:55.877Z,7.00
2023-04-28T14:59:22.978Z,9.90
2023-04-28T15:01:51.626Z,12.30
2023-04-28T15:04:18.537Z,9.05
2023-04-28T15:06:45.689Z,10.10
2023-04-28T15:09:12.831Z,10.57
2023-04-28T15:11:39.558Z,10.05
2023-04-28T15:14:15.056Z,8.90
2023-04-28T15:16:41.741Z,10.07
2023-04-28T15:19:08.213Z,11.95
2023-04-28T15:21:34.917Z,10.93
2023-04-28T15:24:01.610Z,11.52
2023-04-28T15:26:29.995Z,14.68
2023-04-28T15:28:56.877Z,10.07
2023-04-28T15:31:25.977Z,10.32
2023-04-28T15:33:52.732Z,10.20
2023-04-28T15:36:20.393Z,9.18
2023-04-28T15:38:51.783Z,10.00
2023-04-28T15:41:18.706Z,12.23
2023-04-28T15:43:46.207Z,9.80
2023-04-28T15:46:14.961Z,14.35
2023-04-28T15:48:41.525Z,9.70
2023-04-28T15:51:08.120Z,12.80
2023-04-28T15:53:34.664Z,9.75
2023-04-28T15:56:01.230Z,8.57
2023-04-28T15:58:27.826Z,11.85
2023-04-28T16:00:54.608Z,12.68
2023-04-28T16:03:21.394Z,11.50
2023-04-28T16:05:48.457Z,10.02
2023-04-28T16:08:17.646Z,12.48
2023-04-28T16:10:44.507Z,9.55
2023-04-28T16:13:12.330Z,8.63
2023-04-28T16:15:39.234Z,11.02
2023-04-28T16:18:05.743Z,12.55
2023-04-28T16:20:33.753Z,11.43
2023-04-28T16:23:00.378Z,12.45
2023-04-28T16:25:29.020Z,9.23
2023-04-28T16:27:55.713Z,9.60
2023-04-28T16:30:22.584Z,11.00
2023-04-28T16:32:49.172Z,14.13
2023-04-28T16:35:16.041Z,11.05
2023-04-28T16:37:43.854Z,14.10
2023-04-28T16:40:11.052Z,13.63
2023-04-28T16:42:37.961Z,14.27
2023-04-28T16:45:05.059Z,12.77
2023-04-28T16:47:31.903Z,12.90
2023-04-28T16:49:59.450Z,12.95
2023-04-28T16:52:26.476Z,13.45
2023-04-28T16:54:53.118Z,15.55
2023-04-28T16:57:19.759Z,15.43
2023-04-28T16:59:46.488Z,18.70
2023-04-28T17:02:13.013Z,15.40
2023-04-28T17:04:40.693Z,15.10
2023-04-28T17:07:07.428Z,15.68
2023-04-28T17:09:34.148Z,12.85
2023-04-28T17:12:03.862Z,20.38
2023-04-28T17:14:30.669Z,16.38
2023-04-28T17:16:57.369Z,20.25
2023-04-28T17:19:23.948Z,21.63
2023-04-28T17:21:52.879Z,18.67
2023-04-28T17:24:19.516Z,20.40
2023-04-28T17:26:46.153Z,18.25
2023-04-28T17:29:12.742Z,17.55
2023-04-28T17:31:39.572Z,18.38
2023-04-28T17:34:06.251Z,18.90
2023-04-28T17:36:33.746Z,21.05
2023-04-28T17:39:00.408Z,23.83
2023-04-28T17:41:27.217Z,21.38
2023-04-28T17:43:53.916Z,18.85
2023-04-28T17:46:21.082Z,16.08
2023-04-28T17:48:47.805Z,18.75
2023-04-28T17:51:14.488Z,19.40
2023-04-28T17:53:42.434Z,20.20
2023-04-28T17:56:09.193Z,19.63
2023-04-28T17:58:36.626Z,20.10
2023-04-28T18:01:03.972Z,14.30
2023-04-28T18:03:32.563Z,18.02
2023-04-28T18:05:59.555Z,22.15
2023-04-28T18:08:26.449Z,15.30
2023-04-28T18:10:53.242Z,22.75
2023-04-28T18:13:19.971Z,19.80
2023-04-28T18:15:46.774Z,12.35
2023-04-28T18:18:13.446Z,16.35
2023-04-28T18:20:41.600Z,16.38
2023-04-28T18:23:08.925Z,18.05
2023-04-28T18:25:37.138Z,22.73
2023-04-28T18:28:03.951Z,21.00
2023-04-28T18:30:39.275Z,19.77
2023-04-28T18:33:09.467Z,17.73
2023-04-28T18:35:39.361Z,18.30
2023-04-28T18:38:06.131Z,18.52
2023-04-28T18:40:34.279Z,17.25
2023-04-28T18:43:02.355Z,16.92
2023-04-28T18:45:33.013Z,15.15
2023-04-28T18:48:03.213Z,17.73
2023-04-28T18:50:30.696Z,19.25
2023-04-28T18:52:57.778Z,18.80
2023-04-28T18:55:24.521Z,22.70
2023-04-28T18:57:51.766Z,24.98
2023-04-28T19:00:19.098Z,22.38
2023-04-28T19:02:45.792Z,20.33
2023-04-28T19:05:13.174Z,24.35
2023-04-28T19:07:39.700Z,19.88
2023-04-28T19:10:07.024Z,26.17
2023-04-28T19:12:33.519Z,28.73
2023-04-28T19:15:00.544Z,30.80
2023-04-28T19:17:27.394Z,35.60
2023-04-28T19:19:56.974Z,30.02
2023-04-28T19:22:33.383Z,31.45
2023-04-28T19:25:00.431Z,31.88
2023-04-28T19:27:31.161Z,29.13
2023-04-28T19:29:58.532Z,35.75
2023-04-28T19:32:25.195Z,26.13
2023-04-28T19:34:52.074Z,34.42
2023-04-28T19:37:18.959Z,29.65
2023-04-28T19:39:46.199Z,30.58
2023-04-28T19:42:12.920Z,30.90
2023-04-28T19:44:39.795Z,30.95
2023-04-28T19:47:07.375Z,28.65
2023-04-28T19:49:34.568Z,29.73
2023-04-28T19:52:01.402Z,29.98
2023-04-28T19:54:28.386Z,34.38
2023-04-28T19:56:55.633Z,33.05
2023-04-28T19:59:22.586Z,29.58
2023-04-28T20:01:50.093Z,30.60
2023-04-28T20:04:17.615Z,27.20
2023-04-28T20:06:44.606Z,31.70
2023-04-28T20:09:11.238Z,33.80
2023-04-28T20:11:38.063Z,31.38
2023-04-28T20:14:04.892Z,29.75
2023-04-28T20:16:31.791Z,30.10
2023-04-28T20:18:58.311Z,32.75
2023-04-28T20:21:26.536Z,26.42
2023-04-28T20:23:53.123Z,32.30
2023-04-28T20:26:20.720Z,30.05
2023-04-28T20:28:50.695Z,28.40
2023-04-28T20:31:20.187Z,34.00
2023-04-28T20:33:46.770Z,31.60
2023-04-28T20:36:13.597Z,31.48
2023-04-28T20:38:40.284Z,33.65
2023-04-28T20:41:07.764Z,33.60
2023-04-28T20:43:34.649Z,33.10
2023-04-28T20:46:01.448Z,32.38
2023-04-28T20:48:29.138Z,34.90
2023-04-28T20:50:56.638Z,35.58
2023-04-28T20:53:23.212Z,36.58
2023-04-28T20:55:50.020Z,32.95
2023-04-28T20:58:17.913Z,34.17
2023-04-28T21:00:44.652Z,33.47
2023-04-28T21:03:15.860Z,32.65
2023-04-28T21:05:43.792Z,28.65
2023-04-28T21:08:19.352Z,26.48
2023-04-28T21:10:46.431Z,27.23
2023-04-28T21:13:13.167Z,24.38
2023-04-28T21:15:49.358Z,25.63
2023-04-28T21:18:16.129Z,26.23
2023-04-28T21:20:43.519Z,24.98
2023-04-28T21:23:10.191Z,26.10
2023-04-28T21:25:36.980Z,24.27
2023-04-28T21:28:09.029Z,24.98
2023-04-28T21:30:37.153Z,24.73
2023-04-28T21:33:04.138Z,25.58
2023-04-28T21:35:30.845Z,28.35
2023-04-28T21:37:57.615Z,26.92
2023-04-28T21:40:24.191Z,26.98
2023-04-28T21:42:51.080Z,26.00
2023-04-28T21:45:17.742Z,26.92
2023-04-28T21:47:44.541Z,28.25
2023-04-28T21:50:11.585Z,30.88
2023-04-28T21:52:38.637Z,28.25
2023-04-28T21:55:05.586Z,29.75
2023-04-28T21:57:32.897Z,33.92
2023-04-28T21:59:59.458Z,30.90
2023-04-28T22:02:26.590Z,26.27
2023-04-28T22:04:53.814Z,32.05
2023-04-28T22:07:20.418Z,32.00
2023-04-28T22:09:47.403Z,34.72
2023-04-28T22:12:14.357Z,31.77
2023-04-28T22:14:41.566Z,33.67
2023-04-28T22:17:08.362Z,34.05
2023-04-28T22:19:34.912Z,33.20
2023-04-28T22:22:01.406Z,35.13
2023-04-28T22:24:28.022Z,38.85
2023-04-28T22:26:55.088Z,33.13
2023-04-28T22:29:22.050Z,33.85
2023-04-28T22:31:48.789Z,35.35
2023-04-28T22:34:16.468Z,37.55
2023-04-28T22:36:43.003Z,36.55
2023-04-28T22:39:09.621Z,33.28
2023-04-28T22:41:36.282Z,38.95
2023-04-28T22:44:02.850Z,36.95
2023-04-28T22:46:30.116Z,36.53
2023-04-28T22:48:56.801Z,33.90
2023-04-28T22:51:23.721Z,37.08
2023-04-28T22:53:50.248Z,34.55
2023-04-28T22:56:16.736Z,36.92
2023-04-28T22:58:43.283Z,36.38
2023-04-28T23:01:09.932Z,42.08
2023-04-28T23:03:38.447Z,38.35
2023-04-28T23:06:05.303Z,41.13
2023-04-28T23:08:32.467Z,38.58
2023-04-28T23:10:58.939Z,38.08
2023-04-28T23:13:25.524Z,37.55
2023-04-28T23:15:52.358Z,38.42
2023-04-28T23:18:19.102Z,40.90
2023-04-28T23:20:49.167Z,37.15
2023-04-28T23:23:16.165Z,34.63
2023-04-28T23:25:42.981Z,35.80
2023-04-28T23:28:10.285Z,40.13
2023-04-28T23:30:36.842Z,30.95
2023-04-28T23:33:03.848Z,27.42
2023-04-28T23:35:31.378Z,24.20
2023-04-28T23:37:58.155Z,22.17
2023-04-28T23:40:24.774Z,24.00
2023-04-28T23:42:51.402Z,23.05
2023-04-28T23:45:18.017Z,24.17
2023-04-28T23:47:44.690Z,21.75
2023-04-28T23:50:11.552Z,20.05
2023-04-28T23:52:40.451Z,21.80
2023-04-28T23:55:09.791Z,24.70
2023-04-28T23:57:37.272Z,21.17
